• Join FlightAware (Why Join?)
  • Login
  • US Flag 
12:56AM EDT


 

Airport Tracker/Info


-or-


 

Live Flight TrackerFlight Track Log ✈ ASA525 ✈ 09-May-2013 ✈ KBUR - KSEA

Flight Track Log - Related Links

Times and Time Zones

All times are in EDT time to prevent confusion due to time zone crossing. See the ASA525 flight status page for this flight to view local times or setup timezone preferences in your user account.

Time Position Orientation Groundspeed Altitude Reporting Facility
EDT Latitude Longitude Course Direction KTS MPH feet Rate Location/Type
02:51PM 34.1747 -118.3583 251° West 171 197 40,000  Level Los Angeles Center
02:52PM 34.1572 -118.4183 251° West 232 267 4,300 -16,320 Descending Los Angeles Center
02:53PM 34.2133 -118.4592 329° Northwest 242 278 6,300 2,460 Climbing Los Angeles Center
02:54PM 34.2811 -118.5067 330° Northwest 278 320 9,400 3,240 Climbing Los Angeles Center
02:55PM 34.3528 -118.5536 332° Northwest 293 337 13,000 3,360 Climbing Los Angeles Center
02:56PM 34.4267 -118.6036 331° Northwest 302 348 16,400 3,000 Climbing Los Angeles Center
02:57PM 34.5189 -118.6664 331° Northwest 324 373 19,300 2,160 Climbing Los Angeles Center
02:58PM 34.6103 -118.7294 330° Northwest 381 438 21,000 1,740 Climbing Los Angeles Center
02:59PM 34.7106 -118.7983 331° Northwest 417 480 22,900 1,740 Climbing Los Angeles Center
03:00PM 34.8169 -118.8667 332° Northwest 431 496 24,700 1,800 Climbing Los Angeles Center
03:01PM 34.9389 -118.9125 343° North 448 516 26,700 1,740 Climbing Los Angeles Center
03:02PM 35.0611 -118.9611 342° North 458 527 28,400 1,800 Climbing Los Angeles Center
03:03PM 35.2092 -119.0183 342° North 465 535 30,800 2,280 Climbing Los Angeles Center
03:05PM 35.3531 -119.0731 343° North 460 529 34,100 2,040 Climbing Los Angeles Center
03:06PM 35.4911 -119.1281 342° North 444 511 35,500 1,320 Climbing Los Angeles Center
03:07PM 35.6092 -119.1747 342° North 444 511 36,900 1,200 Climbing Los Angeles Center
03:08PM 35.7272 -119.2217 342° North 446 513 38,100 1,140 Climbing Los Angeles Center
03:09PM 35.8675 -119.2758 343° North 443 510 39,300 900 Climbing Los Angeles Center
03:10PM 35.9842 -119.3236 342° North 443 510 40,000 300 Climbing Los Angeles Center
03:11PM 36.1028 -119.3708 342° North 448 516 40,000  Level Los Angeles Center
03:12PM 36.2217 -119.4172 343° North 449 517 40,000  Level Los Angeles Center
03:13PM 36.3406 -119.4669 341° North 452 520 40,000  Level Los Angeles Center
03:14PM 36.4822 -119.5225 343° North 447 514 40,000  Level Los Angeles Center
03:15PM 36.6011 -119.5681 343° North 448 516 40,000  Level Oakland Center
03:16PM 36.7194 -119.6153 342° North 448 516 40,000  Level Oakland Center
03:17PM 36.8592 -119.6736 342° North 443 510 40,000  Level Oakland Center
03:18PM 36.9775 -119.7233 341° North 443 510 40,000  Level Oakland Center
03:19PM 37.0947 -119.7711 342° North 443 510 40,000  Level Oakland Center
03:20PM 37.2103 -119.8186 342° North 439 505 40,000  Level Oakland Center
03:21PM 37.3256 -119.8658 342° North 436 502 40,000  Level Oakland Center
03:22PM 37.4414 -119.9142 342° North 438 504 40,000  Level Oakland Center
03:23PM 37.5556 -119.9611 342° North 434 499 40,000  Level Oakland Center
03:24PM 37.6722 -120.0025 344° North 437 503 40,000  Level Oakland Center
03:25PM 37.8072 -120.0608 341° North 431 496 40,000  Level Oakland Center
03:26PM 37.9217 -120.0978 346° North 426 490 40,000  Level Oakland Center
03:27PM 38.0383 -120.1300 348° North 427 491 40,000  Level Oakland Center
03:28PM 38.1550 -120.1625 348° North 429 494 40,000  Level Oakland Center
03:29PM 38.2725 -120.1972 347° North 432 497 40,000  Level Oakland Center
03:30PM 38.3906 -120.2303 348° North 434 499 40,000  Level Oakland Center
03:32PM 38.5089 -120.2634 348° North  Level FlightAware Approximate
03:32PM 38.6528 -120.3078 348° North 443 510 40,000  Level Oakland Center
03:34PM 38.7722 -120.3417 348° North 443 510 40,000  Level Oakland Center
03:35PM 38.8917 -120.3772 347° North 443 510 40,000  Level Oakland Center
03:36PM 39.0108 -120.4108 348° North 441 507 40,000  Level Oakland Center
03:37PM 39.1303 -120.4456 347° North 440 506 40,000  Level Oakland Center
03:38PM 39.2489 -120.4808 347° North 440 506 40,000  Level Oakland Center
03:39PM 39.3689 -120.5175 347° North 442 509 40,000  Level Oakland Center
03:40PM 39.5111 -120.5600 347° North 440 506 40,000  Level Oakland Center
03:41PM 39.6294 -120.5953 347° North 437 503 40,000  Level Oakland Center
03:42PM 39.7481 -120.6311 347° North 438 504 40,000  Level Oakland Center
03:43PM 39.8650 -120.6631 348° North 435 501 40,000  Level Oakland Center
03:44PM 39.9847 -120.6986 347° North 438 504 40,000  Level Oakland Center
03:45PM 40.1028 -120.7333 347° North 440 506 40,000  Level Oakland Center
03:46PM 40.2228 -120.7711 346° North 441 507 40,000  Level Oakland Center
03:47PM 40.3458 -120.8122 346° North 453 521 40,000  Level Oakland Center
03:48PM 40.4900 -120.8542 348° North 444 511 40,000  Level Oakland Center
03:49PM 40.6072 -120.8814 350° North 448 516 40,000  Level Oakland Center
03:50PM 40.7281 -120.9147 348° North 449 517 40,000  Level Oakland Center
03:51PM 40.8422 -120.9572 344° North 435 501 40,000  Level Seattle Center
03:52PM 40.9597 -120.9917 348° North 434 499 40,000  Level Seattle Center
03:53PM 41.0767 -121.0294 346° North 434 499 40,000  Level Seattle Center
03:54PM 41.1942 -121.0681 346° North 435 501 40,000  Level Seattle Center
03:55PM 41.3122 -121.1047 347° North 436 502 40,000  Level Seattle Center
03:56PM 41.4306 -121.1411 347° North 437 503 40,000  Level Seattle Center
03:57PM 41.5500 -121.1792 347° North 440 506 40,000  Level Seattle Center
03:58PM 41.6928 -121.2247 347° North 441 507 40,000  Level Seattle Center
03:59PM 41.8133 -121.2628 347° North 446 513 40,000  Level Seattle Center
04:00PM 41.9325 -121.3014 346° North 444 511 40,000  Level Seattle Center
04:01PM 42.0497 -121.3375 347° North 442 509 40,000  Level Seattle Center
04:02PM 42.1692 -121.3750 347° North 445 512 40,000  Level Seattle Center
04:03PM 42.2908 -121.4147 346° North 454 522 40,000  Level Seattle Center
04:04PM 42.4100 -121.4533 347° North 445 512 40,000  Level Seattle Center
04:05PM 42.5297 -121.4900 347° North 443 510 40,000  Level Seattle Center
04:06PM 42.6472 -121.5278 347° North 437 503 40,000  Level Seattle Center
04:07PM 42.7878 -121.5725 347° North 434 499 40,000  Level Seattle Center
04:08PM 42.9033 -121.6114 346° North 431 496 40,000  Level Seattle Center
04:09PM 43.0203 -121.6511 346° North 433 498 40,000  Level Seattle Center
04:10PM 43.1356 -121.6903 346° North 428 493 40,000  Level Seattle Center
04:11PM 43.2519 -121.7294 346° North 429 494 40,000  Level Seattle Center
04:12PM 43.3672 -121.7672 347° North 426 490 40,000  Level Seattle Center
04:13PM 43.4836 -121.8061 346° North 429 494 40,000  Level Seattle Center
04:14PM 43.5989 -121.8433 347° North 427 491 40,000  Level Seattle Center
04:15PM 43.7356 -121.8875 347° North 433 498 40,000  Level Seattle Center
04:16PM 43.8514 -121.9261 346° North 431 496 40,000  Level Seattle Center
04:17PM 43.9658 -121.9761 343° North 437 503 40,000  Level Seattle Center
04:18PM 44.0686 -122.0758 325° Northwest 451 519 40,000  Level Seattle Center
04:19PM 44.1700 -122.1722 326° Northwest 445 512 40,000  Level Seattle Center
04:20PM 44.2722 -122.2686 326° Northwest 445 512 40,000  Level Seattle Center
04:21PM 44.3728 -122.3661 325° Northwest 443 510 40,000  Level Seattle Center
04:22PM 44.4731 -122.4619 326° Northwest 441 507 40,000 -240 Level Seattle Center
04:24PM 44.5858 -122.5197 340° North 447 514 39,600 -720 Descending Seattle Center
04:25PM 44.7028 -122.5258 358° North 429 494 38,600 -840 Descending Seattle Center
04:26PM 44.8436 -122.5347 357° North 425 489 38,000 -300 Descending Seattle Center
04:27PM 44.9567 -122.5406 358° North 423 487 38,000  Level Seattle Center
04:28PM 45.0733 -122.5489 357° North 423 487 38,000  Level Seattle Center
04:29PM 45.1892 -122.5558 358° North 421 484 38,000  Level Seattle Center
04:30PM 45.3058 -122.5625 358° North 422 486 38,000  Level Seattle Center
04:31PM 45.4236 -122.5703 357° North 426 490 38,000  Level Seattle Center
04:32PM 45.5422 -122.5778 357° North 429 494 38,000  Level Seattle Center
04:33PM 45.6583 -122.5850 358° North 424 488 38,000  Level Seattle Center
04:34PM 45.7756 -122.5942 357° North 424 488 38,000  Level Seattle Center
04:35PM 45.9136 -122.6317 349° North 423 487 38,000 -1,380 Level Seattle Center
04:36PM 46.0328 -122.6606 350° North 428 493 35,200 -3,240 Descending Seattle Center
04:37PM 46.1517 -122.6881 351° North 436 502 31,500 -3,060 Descending Seattle Center
04:38PM 46.2744 -122.7092 353° North 447 514 29,000 -2,400 Descending Seattle Center
04:39PM 46.3911 -122.7236 355° North 430 495 26,600 -2,400 Descending Seattle Center
04:40PM 46.5058 -122.7181 North 417 480 24,200 -2,340 Descending Seattle Center
04:41PM 46.6161 -122.7131 North 402 463 21,900 -2,520 Descending Seattle Center
04:41PM 46.6708 -122.7122 North 391 450 20,800 -2,640 Descending Seattle Center
04:42PM 46.7367 -122.7094 North 384 442 19,400 -1,920 Descending Seattle Center
04:43PM 46.8356 -122.6789 12° North 370 426 17,700 -1,920 Descending Seattle Center
04:44PM 46.9083 -122.5978 37° Northeast 353 406 15,800 -2,040 Descending Seattle Center
04:45PM 46.9953 -122.5378 25° Northeast 346 398 13,800 -1,740 Descending Seattle Center
04:46PM 47.0833 -122.4997 16° North 335 386 12,300 -1,620 Descending Seattle Center
04:47PM 47.1706 -122.4847 North 311 358 10,600 -1,380 Descending Seattle Center
04:48PM 47.2597 -122.4686 North 295 339 9,500 -1,080 Descending Seattle Center
04:49PM 47.3464 -122.4558 North 271 312 8,300 -1,080 Descending Seattle Center
04:50PM 47.4122 -122.4572 359° North 254 292 7,300 -1,140 Descending Seattle Center
04:51PM 47.4864 -122.4558 North 247 284 6,000 -1,200 Descending Seattle Center
04:52PM 47.5500 -122.4569 359° North 242 278 4,900 -1,080 Descending Seattle Center
04:53PM 47.6025 -122.4183 26° Northeast 234 269 4,000 -780 Descending Seattle Center
04:54PM 47.5894 -122.3400 104° East 213 245 3,400 -780 Descending Seattle Center
04:55PM 47.5400 -122.3117 159° South 184 212 2,500 -1,080 Descending Seattle Center
04:56PM 47.4933 -122.3111 180° South 141 162 1,300 -960 Descending Seattle Center
04:57PM 47.4478 -122.3122 181° South 140 161 400 -780 Descending Seattle Center
04:59PM 47.4499 -122.3118 North  Level Estimated